Flight Track Log - Related Links

Times and Time Zones

All times are in EDT time to prevent confusion due to time zone crossing. See the LAN439 flight status page for this flight to view local times or setup timezone preferences in your user account.

Time Position Orientation Groundspeed Altitude Reporting Facility
EDT Latitude Longitude Course Direction KTS MPH feet Rate Location/Type
Thu 09:04:43 AM -35.0150 -60.3300 93° East 30,100  Level FlightAware ADS-B
Thu 09:05:38 AM -35.0170 -60.2200 91° East 28,900 -1,309 Descending FlightAware ADS-B
Thu 09:06:23 AM -35.0180 -60.1330 91° East 27,900 -1,333 Descending FlightAware ADS-B
Thu 09:07:03 AM -35.0200 -60.0560 92° East 27,000 -1,350 Descending FlightAware ADS-B
Thu 09:07:48 AM -35.0210 -59.9720 91° East 26,000 -1,333 Descending FlightAware ADS-B
Thu 09:08:28 AM -35.0220 -59.8970 91° East 25,100 -1,350 Descending FlightAware ADS-B
Thu 09:09:03 AM -35.0230 -59.8310 91° East 24,300 -1,371 Descending FlightAware ADS-B
Thu 09:09:53 AM -35.0150 -59.7510 83° East 22,800 -1,800 Descending FlightAware ADS-B
Thu 09:10:33 AM -34.9810 -59.6810 59° Northeast 20,800 -3,000 Descending FlightAware ADS-B
Thu 09:11:13 AM -34.9490 -59.6140 60° Northeast 19,800 -1,500 Descending FlightAware ADS-B
Thu 09:11:58 AM -34.9140 -59.5370 61° Northeast 18,600 -1,600 Descending FlightAware ADS-B
Thu 09:12:38 AM -34.8800 -59.4660 60° Northeast 17,600 -1,500 Descending FlightAware ADS-B
Thu 09:13:23 AM -34.8470 -59.3960 60° Northeast 16,400 -1,600 Descending FlightAware ADS-B
Thu 09:14:03 AM -34.8170 -59.3300 61° Northeast 15,400 -1,500 Descending FlightAware ADS-B
Thu 09:14:43 AM -34.7870 -59.2670 60° Northeast 14,500 -1,350 Descending FlightAware ADS-B
Thu 09:15:28 AM -34.7560 -59.2010 60° Northeast 13,600 -1,200 Descending FlightAware ADS-B
Thu 09:16:08 AM -34.7290 -59.1440 60° Northeast 12,800 -1,200 Descending FlightAware ADS-B
Thu 09:16:53 AM -34.6990 -59.0790 61° Northeast 11,900 -1,200 Descending FlightAware ADS-B
Thu 09:17:28 AM -34.6760 -59.0310 60° Northeast 11,200 -1,200 Descending FlightAware ADS-B
Thu 09:18:13 AM -34.6460 -58.9660 61° Northeast 10,300 -1,200 Descending FlightAware ADS-B
Thu 09:18:43 AM -34.6250 -58.9230 59° Northeast 9,600 -1,400 Descending FlightAware ADS-B
Thu 09:19:13 AM -34.6050 -58.8810 60° Northeast 9,000 -1,200 Descending FlightAware ADS-B
Thu 09:19:38 AM -34.5890 -58.8470 60° Northeast 8,500 -1,200 Descending FlightAware ADS-B
Thu 09:20:08 AM -34.5680 -58.8060 58° Northeast 7,900 -1,200 Descending FlightAware ADS-B
Thu 09:20:23 AM -34.5510 -58.7910 36° Northeast 7,600 -1,200 Descending FlightAware ADS-B
Thu 09:20:33 AM -34.5380 -58.7880 11° North 7,400 -1,200 Descending FlightAware ADS-B
Thu 09:21:03 AM -34.4990 -58.7840 North 6,800 -1,200 Descending FlightAware ADS-B
Thu 09:21:28 AM -34.4680 -58.7800 North 6,300 -1,200 Descending FlightAware ADS-B
Thu 09:21:58 AM -34.4310 -58.7760 North 5,700 -1,200 Descending FlightAware ADS-B
Thu 09:22:28 AM -34.3920 -58.7710 North 5,100 -1,200 Descending FlightAware ADS-B
Thu 09:22:43 AM -34.3770 -58.7680 North 5,000 -400 Descending FlightAware ADS-B
Thu 09:22:53 AM -34.3670 -58.7600 33° Northeast 5,000  Level FlightAware ADS-B
Thu 09:23:08 AM -34.3580 -58.7420 59° Northeast 5,000  Level FlightAware ADS-B
Thu 09:23:38 AM -34.3640 -58.7060 101° East 4,700 -600 Descending FlightAware ADS-B
Thu 09:24:08 AM -34.3840 -58.6770 130° Southeast 4,300 -800 Descending FlightAware ADS-B
Thu 09:24:33 AM -34.4000 -58.6550 131° Southeast 3,800 -1,200 Descending FlightAware ADS-B
Thu 09:24:48 AM -34.4100 -58.6410 131° Southeast 3,600 -800 Descending FlightAware ADS-B
Thu 09:25:13 AM -34.4260 -58.6190 131° Southeast 3,200 -960 Descending FlightAware ADS-B
Thu 09:25:43 AM -34.4470 -58.5890 130° Southeast 2,500 -1,400 Descending FlightAware ADS-B
Thu 09:25:58 AM -34.4580 -58.5760 136° Southeast 2,300 -800 Descending FlightAware ADS-B
Thu 09:26:23 AM -34.4760 -58.5590 142° Southeast 2,300  Level FlightAware ADS-B
Thu 09:26:38 AM -34.4860 -58.5460 133° Southeast 2,200 -400 Descending FlightAware ADS-B
Thu 09:27:08 AM -34.5000 -58.5230 126° Southeast 1,700 -1,000 Descending FlightAware ADS-B
Thu 09:27:33 AM -34.5100 -58.5050 124° Southeast 1,400 -720 Descending FlightAware ADS-B
Thu 09:28:03 AM -34.5210 -58.4850 124° Southeast 1,000 -800 Descending FlightAware ADS-B
Thu 09:28:33 AM -34.5310 -58.4670 124° Southeast 600 -800 Descending FlightAware ADS-B
Thu 09:28:58 AM -34.5390 -58.4520 123° Southeast 400 -480 Descending FlightAware ADS-B
Thu 09:29:13 AM -34.5440 -58.4430 124° Southeast 200 -800 Descending FlightAware ADS-B
Thu 09:31:00 AM -34.5500 -58.4167 90° East  Level FlightAware Approximate
Thu 09:32:00 AM -34.5592 -58.4156 90° East  Level Estimated
Thu 09:33:00 AM -34.5592 -58.4156 90° East  Level Estimated

Login

Don't have an account? Register now (free) for customized features, flight alerts, and more!